Tenjinmaru No11 — JD3353 — position and weather

sailwx.info

Track history (hours):
 
Tides and Currents Weather Stations Pressure Air Temp Water Temp Dewpoint Dewpoint Depression Visibility Wind Speed Wind Dir Waves Ship Positions

Tenjinmaru No11

Last reported at 2015-Aug-31 00:29 UTC. Time now 2015-Aug-31 00:39 UTC.
Position N 35°38' E 139°48'.

Length 75 m; draft 4.8 m.

Type: Cargo ship. MMSI: 431003485.

Date/timePositionNaut miles runAvg speedWind from/ knotsBaromVisibWave heightAir tempDewpointWater temp
2015-Aug-31 00:29N 35°38' E 139°48'0 0.0
2015-Aug-30 23:29N 35°38' E 139°48'0 0.0
2015-Aug-30 22:29N 35°38' E 139°48'0 0.0
2015-Aug-30 21:32N 35°38' E 139°48'0 0.0
2015-Aug-30 20:29N 35°38' E 139°48'0 0.0
2015-Aug-30 19:32N 35°38' E 139°48'0 0.0
2015-Aug-30 18:29N 35°38' E 139°48'0 0.0
2015-Aug-30 17:29N 35°38' E 139°48'0 0.0
2015-Aug-30 16:32N 35°38' E 139°48'0 0.0
2015-Aug-30 15:32N 35°38' E 139°48'0 0.0
2015-Aug-30 14:32N 35°38' E 139°48'0 0.0
2015-Aug-30 13:29N 35°38' E 139°48'0 0.0
2015-Aug-30 12:29N 35°38' E 139°48'0 0.0
2015-Aug-30 11:32N 35°38' E 139°48'0 0.0
2015-Aug-30 10:29N 35°38' E 139°48'0 0.0
2015-Aug-30 09:32N 35°38' E 139°48'0 0.0
2015-Aug-30 08:32N 35°38' E 139°48'0 0.0
2015-Aug-30 07:32N 35°38' E 139°48'0 0.0
2015-Aug-30 06:32N 35°38' E 139°48'3 3.4
2015-Aug-30 05:33N 35°36' E 139°51'1010.2
2015-Aug-30 04:33N 35°35' E 140°04'2 1.9
2015-Aug-30 03:33N 35°37' E 140°05'0 0.0
2015-Aug-30 02:33N 35°37' E 140°05'0 0.0
2015-Aug-30 01:33N 35°37' E 140°05'0 0.0
2015-Aug-30 00:31N 35°37' E 140°05'0 0.0
2015-Aug-29 23:33N 35°37' E 140°05'0 0.0
2015-Aug-29 22:32N 35°37' E 140°05'0 0.0
2015-Aug-29 21:33N 35°37' E 140°05'0 0.0
2015-Aug-29 20:33N 35°37' E 140°05'0 0.0
2015-Aug-29 19:33N 35°37' E 140°05'0 0.0
2015-Aug-29 18:33N 35°37' E 140°05'0 0.0
2015-Aug-29 17:32N 35°37' E 140°05'0 0.0
2015-Aug-29 16:33N 35°37' E 140°05'0 0.0
2015-Aug-29 15:33N 35°37' E 140°05'0 0.0
2015-Aug-29 14:33N 35°37' E 140°05'0 0.0
2015-Aug-29 13:33N 35°37' E 140°05'0 0.0
2015-Aug-29 12:33N 35°37' E 140°05'0 0.0
2015-Aug-29 11:33N 35°37' E 140°05'0 0.0
2015-Aug-29 10:33N 35°37' E 140°05'0 0.0
2015-Aug-29 09:33N 35°37' E 140°05'0 0.0
2015-Aug-29 08:33N 35°37' E 140°05'0 0.0
2015-Aug-29 07:33N 35°37' E 140°05'0 0.0
2015-Aug-29 06:33N 35°37' E 140°05'0 0.0
2015-Aug-29 05:33N 35°37' E 140°05'0 0.0
2015-Aug-29 04:33N 35°37' E 140°05'0 0.0
2015-Aug-29 03:33N 35°37' E 140°05'0 0.0
2015-Aug-29 02:33N 35°37' E 140°05'0 0.0
2015-Aug-29 01:33N 35°37' E 140°05'0 0.0
2015-Aug-29 00:31N 35°37' E 140°05'0 0.0
2015-Aug-28 23:33N 35°37' E 140°05'1 1.4
2015-Aug-28 22:33N 35°35' E 140°04'1 0.9
2015-Aug-28 21:33N 35°35' E 140°03'0 0.0
2015-Aug-28 20:30N 35°35' E 140°03'0 0.0
2015-Aug-28 19:33N 35°35' E 140°03'0 0.0
2015-Aug-28 18:33N 35°35' E 140°03'0 0.0
2015-Aug-28 17:32N 35°35' E 140°03'1 0.8
2015-Aug-28 16:33N 35°35' E 140°02'1010.4
2015-Aug-28 15:33N 35°29' E 139°52'1110.7
2015-Aug-28 14:33N 35°20' E 139°44'9 9.3
2015-Aug-28 13:33N 35°11' E 139°47'  
Track history (hours):
 
Tides and Currents Weather Stations Pressure Air Temp Water Temp Dewpoint Dewpoint Depression Visibility Wind Speed Wind Dir Waves Ship Positions

Tenjinmaru No11

Last reported at 2015-Aug-31 00:29 UTC. Time now 2015-Aug-31 00:39 UTC.
Position N 35°38' E 139°48'.

Length 75 m; draft 4.8 m.

Type: Cargo ship. MMSI: 431003485.

Date/timePositionNaut miles runAvg speedWind from/ knotsBaromVisibWave heightAir tempDewpointWater temp
2015-Aug-31 00:29N 35°38' E 139°48'0 0.0
2015-Aug-30 23:29N 35°38' E 139°48'0 0.0
2015-Aug-30 22:29N 35°38' E 139°48'0 0.0
2015-Aug-30 21:32N 35°38' E 139°48'0 0.0
2015-Aug-30 20:29N 35°38' E 139°48'0 0.0
2015-Aug-30 19:32N 35°38' E 139°48'0 0.0
2015-Aug-30 18:29N 35°38' E 139°48'0 0.0
2015-Aug-30 17:29N 35°38' E 139°48'0 0.0
2015-Aug-30 16:32N 35°38' E 139°48'0 0.0
2015-Aug-30 15:32N 35°38' E 139°48'0 0.0
2015-Aug-30 14:32N 35°38' E 139°48'0 0.0
2015-Aug-30 13:29N 35°38' E 139°48'0 0.0
2015-Aug-30 12:29N 35°38' E 139°48'0 0.0
2015-Aug-30 11:32N 35°38' E 139°48'0 0.0
2015-Aug-30 10:29N 35°38' E 139°48'0 0.0
2015-Aug-30 09:32N 35°38' E 139°48'0 0.0
2015-Aug-30 08:32N 35°38' E 139°48'0 0.0
2015-Aug-30 07:32N 35°38' E 139°48'0 0.0
2015-Aug-30 06:32N 35°38' E 139°48'3 3.4
2015-Aug-30 05:33N 35°36' E 139°51'1010.2
2015-Aug-30 04:33N 35°35' E 140°04'2 1.9
2015-Aug-30 03:33N 35°37' E 140°05'0 0.0
2015-Aug-30 02:33N 35°37' E 140°05'0 0.0
2015-Aug-30 01:33N 35°37' E 140°05'0 0.0
2015-Aug-30 00:31N 35°37' E 140°05'0 0.0
2015-Aug-29 23:33N 35°37' E 140°05'0 0.0
2015-Aug-29 22:32N 35°37' E 140°05'0 0.0
2015-Aug-29 21:33N 35°37' E 140°05'0 0.0
2015-Aug-29 20:33N 35°37' E 140°05'0 0.0
2015-Aug-29 19:33N 35°37' E 140°05'0 0.0
2015-Aug-29 18:33N 35°37' E 140°05'0 0.0
2015-Aug-29 17:32N 35°37' E 140°05'0 0.0
2015-Aug-29 16:33N 35°37' E 140°05'0 0.0
2015-Aug-29 15:33N 35°37' E 140°05'0 0.0
2015-Aug-29 14:33N 35°37' E 140°05'0 0.0
2015-Aug-29 13:33N 35°37' E 140°05'0 0.0
2015-Aug-29 12:33N 35°37' E 140°05'0 0.0
2015-Aug-29 11:33N 35°37' E 140°05'0 0.0
2015-Aug-29 10:33N 35°37' E 140°05'0 0.0
2015-Aug-29 09:33N 35°37' E 140°05'0 0.0
2015-Aug-29 08:33N 35°37' E 140°05'0 0.0
2015-Aug-29 07:33N 35°37' E 140°05'0 0.0
2015-Aug-29 06:33N 35°37' E 140°05'0 0.0
2015-Aug-29 05:33N 35°37' E 140°05'0 0.0
2015-Aug-29 04:33N 35°37' E 140°05'0 0.0
2015-Aug-29 03:33N 35°37' E 140°05'0 0.0
2015-Aug-29 02:33N 35°37' E 140°05'0 0.0
2015-Aug-29 01:33N 35°37' E 140°05'0 0.0
2015-Aug-29 00:31N 35°37' E 140°05'0 0.0
2015-Aug-28 23:33N 35°37' E 140°05'1 1.4
2015-Aug-28 22:33N 35°35' E 140°04'1 0.9
2015-Aug-28 21:33N 35°35' E 140°03'0 0.0
2015-Aug-28 20:30N 35°35' E 140°03'0 0.0
2015-Aug-28 19:33N 35°35' E 140°03'0 0.0
2015-Aug-28 18:33N 35°35' E 140°03'0 0.0
2015-Aug-28 17:32N 35°35' E 140°03'1 0.8
2015-Aug-28 16:33N 35°35' E 140°02'1010.4
2015-Aug-28 15:33N 35°29' E 139°52'1110.7
2015-Aug-28 14:33N 35°20' E 139°44'9 9.3
2015-Aug-28 13:33N 35°11' E 139°47'  

Dump ship's entire track history